Time;durP1;ratioP1;P1;durP2;ratioP2;P2;SDS_P1;SDS_P2;PMS_P1;PMS_P2;Temp;Humidity;BMP_temperature;BMP_pressure;BME280_temperature;BME280_humidity;BME280_pressure;Samples;Min_cycle;Max_cycle;Signal;HPM_P1;HPM_P2
2023/05/17 00:00:50;;;;;;;10.30;5.07;;;9.50;99.90;;;;;;5044310;28;20025;-84
2023/05/17 00:03:16;;;;;;;13.00;5.25;;;9.40;99.90;;;;;;5056573;28;20035;-84
2023/05/17 00:05:41;;;;;;;7.75;4.38;;;9.30;99.90;;;;;;5043636;28;20111;-84
2023/05/17 00:08:07;;;;;;;10.85;4.53;;;9.20;99.90;;;;;;5048110;28;20419;-85
2023/05/17 00:10:32;;;;;;;11.45;5.10;;;9.10;99.90;;;;;;5040912;28;20128;-84
2023/05/17 00:12:58;;;;;;;14.13;5.28;;;9.00;99.90;;;;;;5059254;28;20081;-84
2023/05/17 00:15:24;;;;;;;10.85;5.18;;;8.90;99.90;;;;;;5061385;28;20024;-84
2023/05/17 00:17:49;;;;;;;10.45;4.88;;;8.90;99.90;;;;;;5044407;28;20024;-84
2023/05/17 00:20:15;;;;;;;10.52;5.18;;;8.80;99.90;;;;;;5061105;28;20486;-84
2023/05/17 00:22:42;;;;;;;11.50;5.30;;;8.80;99.90;;;;;;5061716;28;20032;-84
2023/05/17 00:25:07;;;;;;;8.90;5.13;;;8.70;99.90;;;;;;5032493;28;20088;-85
2023/05/17 00:27:33;;;;;;;9.82;4.65;;;8.70;99.90;;;;;;5045974;28;20139;-84
2023/05/17 00:29:59;;;;;;;13.75;5.30;;;8.70;99.90;;;;;;5067401;28;20093;-84
2023/05/17 00:32:24;;;;;;;12.20;5.18;;;8.70;99.90;;;;;;5077142;28;20028;-84
2023/05/17 00:34:50;;;;;;;13.73;5.22;;;8.70;99.90;;;;;;5052797;28;20037;-84
2023/05/17 00:37:15;;;;;;;8.20;4.63;;;8.70;99.90;;;;;;5056802;28;20081;-84
2023/05/17 00:39:41;;;;;;;13.55;4.95;;;8.70;99.90;;;;;;5044829;28;20047;-84
2023/05/17 00:42:07;;;;;;;12.55;4.97;;;8.60;99.90;;;;;;5041609;28;20024;-85
2023/05/17 00:44:32;;;;;;;15.18;5.28;;;8.60;99.90;;;;;;5037694;28;20037;-86
2023/05/17 00:46:58;;;;;;;11.48;5.10;;;8.60;99.90;;;;;;5055612;28;20140;-85
2023/05/17 00:49:25;;;;;;;10.32;4.85;;;8.50;99.90;;;;;;5047101;28;20048;-85
2023/05/17 00:51:52;;;;;;;10.68;4.90;;;8.50;99.90;;;;;;5038178;28;20074;-84
2023/05/17 00:54:18;;;;;;;9.48;4.97;;;8.50;99.90;;;;;;5054954;28;20036;-84
2023/05/17 00:56:44;;;;;;;9.60;5.00;;;8.50;99.90;;;;;;5029992;28;20029;-85
2023/05/17 00:59:12;;;;;;;13.88;5.10;;;8.40;99.90;;;;;;5054438;28;20088;-84
2023/05/17 01:01:41;;;;;;;12.15;5.10;;;8.40;99.90;;;;;;5046437;28;20488;-84
2023/05/17 01:04:08;;;;;;;14.20;5.55;;;8.30;99.90;;;;;;5085405;28;20032;-84
2023/05/17 01:06:37;;;;;;;8.50;4.95;;;8.30;99.90;;;;;;5036248;28;20057;-85
2023/05/17 01:09:04;;;;;;;16.40;5.65;;;8.30;99.90;;;;;;5059095;28;20049;-84
2023/05/17 01:11:55;;;;;;;10.65;5.72;;;8.30;99.90;;;;;;5046650;28;20169;-85
2023/05/17 01:14:48;;;;;;;12.65;5.93;;;8.20;99.90;;;;;;5066458;28;20267;-85
2023/05/17 01:17:24;;;;;;;12.80;6.30;;;8.20;99.90;;;;;;5048384;28;20090;-84
2023/05/17 01:19:52;;;;;;;12.82;6.40;;;8.20;99.90;;;;;;5048564;28;20052;-84
2023/05/17 01:22:52;;;;;;;10.48;5.43;;;8.20;99.90;;;;;;5057508;28;20063;-84
2023/05/17 01:25:36;;;;;;;10.48;6.25;;;8.20;99.90;;;;;;5046184;28;20041;-85
2023/05/17 01:28:08;;;;;;;13.93;6.03;;;8.20;99.90;;;;;;5066447;28;20048;-85
2023/05/17 01:30:35;;;;;;;10.98;6.22;;;8.20;99.90;;;;;;5046097;28;20041;-85
2023/05/17 01:33:02;;;;;;;10.98;6.45;;;8.20;99.90;;;;;;5054070;28;20023;-85
2023/05/17 01:35:28;;;;;;;10.05;5.93;;;8.20;99.90;;;;;;5055683;28;20150;-84
2023/05/17 01:37:54;;;;;;;13.38;5.78;;;8.20;99.90;;;;;;5065283;28;20106;-84
2023/05/17 01:40:20;;;;;;;12.45;5.63;;;8.10;99.90;;;;;;5027366;28;20188;-84
2023/05/17 01:42:52;;;;;;;9.18;5.35;;;8.10;99.90;;;;;;5035497;28;20029;-84
2023/05/17 01:45:26;;;;;;;12.02;5.93;;;8.10;99.90;;;;;;5044659;28;20064;-84
2023/05/17 01:47:55;;;;;;;9.60;4.72;;;8.10;99.90;;;;;;5045441;28;20047;-84
2023/05/17 01:50:23;;;;;;;13.85;5.28;;;8.00;99.90;;;;;;5044758;28;20064;-84
2023/05/17 01:53:20;;;;;;;8.55;5.63;;;7.90;99.90;;;;;;5061491;28;20468;-84
2023/05/17 01:55:52;;;;;;;12.88;5.53;;;7.80;99.90;;;;;;5023067;28;20119;-84
2023/05/17 01:58:20;;;;;;;9.48;5.43;;;7.80;99.90;;;;;;5033627;28;20468;-84
2023/05/17 02:00:48;;;;;;;11.32;5.75;;;7.80;99.90;;;;;;5044046;28;20043;-85
2023/05/17 02:03:20;;;;;;;12.52;6.63;;;7.70;99.90;;;;;;5047589;23;20059;-85
2023/05/17 02:05:55;;;;;;;11.63;5.82;;;7.70;99.90;;;;;;5048093;28;20051;-84
2023/05/17 02:08:31;;;;;;;11.75;6.30;;;7.60;99.90;;;;;;5033143;23;20044;-84
2023/05/17 02:10:58;;;;;;;11.98;5.95;;;7.60;99.90;;;;;;5013346;28;20048;-84
2023/05/17 02:13:25;;;;;;;11.25;6.00;;;7.50;99.90;;;;;;5038776;28;20063;-84
2023/05/17 02:15:50;;;;;;;8.77;5.75;;;7.50;99.90;;;;;;5005533;28;20021;-85
2023/05/17 02:18:16;;;;;;;10.43;5.88;;;7.50;99.90;;;;;;5017924;28;20025;-84
2023/05/17 02:20:41;;;;;;;12.02;6.32;;;7.50;99.90;;;;;;5026701;28;20024;-84
2023/05/17 02:23:07;;;;;;;11.75;6.60;;;7.50;99.90;;;;;;5058088;28;20505;-84
2023/05/17 02:25:32;;;;;;;10.82;6.20;;;7.50;99.90;;;;;;5042322;28;20116;-83
2023/05/17 02:27:58;;;;;;;9.70;5.97;;;7.40;99.90;;;;;;5020582;28;20037;-84
2023/05/17 02:30:24;;;;;;;11.10;6.18;;;7.50;99.90;;;;;;5005579;28;20093;-84
2023/05/17 02:32:51;;;;;;;12.82;6.88;;;7.40;99.90;;;;;;5023448;28;20485;-84
2023/05/17 02:35:16;;;;;;;9.40;6.07;;;7.40;99.90;;;;;;5028086;28;20389;-84
2023/05/17 02:37:42;;;;;;;10.57;6.53;;;7.30;99.90;;;;;;5059181;28;20031;-84
2023/05/17 02:40:09;;;;;;;15.30;6.50;;;7.30;99.90;;;;;;5023691;28;20048;-84
2023/05/17 02:42:35;;;;;;;11.70;6.80;;;7.30;99.90;;;;;;5034005;28;20021;-84
2023/05/17 02:45:01;;;;;;;15.45;7.30;;;7.30;99.90;;;;;;5028581;28;20029;-84
2023/05/17 02:47:27;;;;;;;13.38;8.02;;;7.30;99.90;;;;;;5032280;28;20036;-84
2023/05/17 02:49:52;;;;;;;12.63;7.70;;;7.30;99.90;;;;;;5028811;28;20036;-84
2023/05/17 02:52:18;;;;;;;14.18;8.63;;;7.30;99.90;;;;;;5047709;28;20029;-84
2023/05/17 02:54:44;;;;;;;13.50;8.40;;;7.30;99.90;;;;;;5018915;28;20398;-84
2023/05/17 02:57:09;;;;;;;16.25;8.45;;;7.30;99.90;;;;;;5028244;28;20515;-82
2023/05/17 02:59:35;;;;;;;15.85;8.50;;;7.40;99.90;;;;;;5034912;28;20029;-84
2023/05/17 03:02:01;;;;;;;16.65;8.43;;;7.30;99.90;;;;;;5047345;28;20173;-84
2023/05/17 03:04:27;;;;;;;12.27;7.43;;;7.30;99.90;;;;;;5026635;28;20025;-84
2023/05/17 03:06:52;;;;;;;16.48;7.60;;;7.30;99.90;;;;;;5043792;28;20498;-81
2023/05/17 03:09:18;;;;;;;17.00;6.85;;;7.30;99.90;;;;;;5059883;28;20064;-84
2023/05/17 03:11:44;;;;;;;10.13;6.45;;;7.30;99.90;;;;;;5041660;28;20459;-84
2023/05/17 03:14:09;;;;;;;11.52;7.20;;;7.30;99.90;;;;;;5027029;28;20035;-83
2023/05/17 03:16:35;;;;;;;14.15;7.05;;;7.30;99.90;;;;;;5038392;28;20259;-84
2023/05/17 03:19:01;;;;;;;16.08;7.20;;;7.30;99.90;;;;;;5034820;28;20025;-84
2023/05/17 03:21:26;;;;;;;12.77;6.90;;;7.20;99.90;;;;;;5060724;28;20052;-84
2023/05/17 03:23:52;;;;;;;12.82;6.60;;;7.20;99.90;;;;;;5051785;28;20577;-84
2023/05/17 03:26:21;;;;;;;10.75;6.53;;;7.10;99.90;;;;;;5063506;28;20040;-84
2023/05/17 03:28:47;;;;;;;14.40;6.13;;;7.10;99.90;;;;;;5081721;28;20047;-83
2023/05/17 03:31:13;;;;;;;13.50;7.15;;;7.00;99.90;;;;;;5048068;28;20024;-84
2023/05/17 03:33:38;;;;;;;13.63;6.40;;;7.00;99.90;;;;;;5064796;28;20028;-83
2023/05/17 03:36:04;;;;;;;11.93;5.95;;;7.00;99.90;;;;;;5066229;28;20579;-83
2023/05/17 03:38:30;;;;;;;13.20;6.40;;;7.00;99.90;;;;;;5046653;28;20048;-83
2023/05/17 03:40:56;;;;;;;9.50;5.90;;;6.90;99.90;;;;;;5027907;28;20033;-83
2023/05/17 03:43:21;;;;;;;11.00;5.95;;;6.90;99.90;;;;;;5032855;28;20270;-84
2023/05/17 03:45:47;;;;;;;14.00;6.68;;;6.90;99.90;;;;;;5046620;28;20059;-83
2023/05/17 03:48:12;;;;;;;11.98;6.43;;;6.90;99.90;;;;;;5031865;28;20569;-83
2023/05/17 03:50:39;;;;;;;14.73;7.00;;;6.80;99.90;;;;;;5050561;28;20025;-82
2023/05/17 03:53:06;;;;;;;13.02;6.65;;;6.80;99.90;;;;;;5069659;28;20020;-83
2023/05/17 03:55:31;;;;;;;15.15;6.43;;;6.80;99.90;;;;;;5066446;28;20024;-83
2023/05/17 03:57:57;;;;;;;12.95;6.65;;;6.80;99.90;;;;;;5076960;28;20039;-83
2023/05/17 04:00:23;;;;;;;14.50;7.30;;;6.80;99.90;;;;;;5051280;28;20115;-82
2023/05/17 04:02:50;;;;;;;13.40;6.88;;;6.80;99.90;;;;;;5066264;28;20102;-82
2023/05/17 04:05:19;;;;;;;13.65;7.13;;;6.80;99.90;;;;;;5038769;28;20033;-83
2023/05/17 04:07:45;;;;;;;18.75;6.93;;;6.70;99.90;;;;;;5067501;28;20090;-82
2023/05/17 04:10:11;;;;;;;14.32;8.00;;;6.70;99.90;;;;;;5064032;28;20059;-83
2023/05/17 04:12:36;;;;;;;13.40;7.05;;;6.70;99.90;;;;;;5046426;28;20025;-83
2023/05/17 04:15:03;;;;;;;18.48;8.77;;;6.70;99.90;;;;;;5042124;28;20059;-83
2023/05/17 04:17:29;;;;;;;14.80;8.25;;;6.70;99.90;;;;;;5042202;28;20055;-83
2023/05/17 04:19:54;;;;;;;16.60;8.05;;;6.70;99.90;;;;;;5041958;28;20032;-83
2023/05/17 04:22:20;;;;;;;15.38;9.02;;;6.80;99.90;;;;;;5054692;28;20500;-84
2023/05/17 04:24:46;;;;;;;16.25;9.05;;;6.90;99.90;;;;;;5042156;28;20048;-84
2023/05/17 04:27:12;;;;;;;17.05;10.15;;;7.00;99.90;;;;;;5063845;28;20036;-83
2023/05/17 04:29:38;;;;;;;16.83;9.77;;;7.10;99.90;;;;;;5048302;28;20037;-84
2023/05/17 04:32:13;;;;;;;16.40;9.95;;;7.10;99.90;;;;;;5073137;23;20059;-83
2023/05/17 04:34:47;;;;;;;15.23;9.48;;;7.20;99.90;;;;;;5063265;28;20127;-83
2023/05/17 04:37:15;;;;;;;20.17;8.63;;;7.20;99.90;;;;;;5038589;28;20037;-83
2023/05/17 04:39:44;;;;;;;19.33;10.07;;;7.30;99.90;;;;;;5067379;28;20028;-83
2023/05/17 04:42:10;;;;;;;15.43;9.10;;;7.30;99.90;;;;;;5064836;28;20594;-80
2023/05/17 04:44:36;;;;;;;16.70;8.50;;;7.30;99.90;;;;;;5061590;28;20101;-82
2023/05/17 04:47:02;;;;;;;12.50;7.20;;;7.30;99.90;;;;;;5045762;28;20488;-82
2023/05/17 04:49:30;;;;;;;14.90;6.90;;;7.30;99.90;;;;;;5051342;28;20088;-82
2023/05/17 04:51:56;;;;;;;14.60;6.30;;;7.30;99.90;;;;;;5048642;28;20040;-82
2023/05/17 04:54:21;;;;;;;12.95;6.72;;;7.40;99.90;;;;;;5058796;28;20036;-83
2023/05/17 04:56:47;;;;;;;9.98;6.43;;;7.30;99.90;;;;;;5072005;28;20410;-83
2023/05/17 04:59:13;;;;;;;10.60;6.65;;;7.40;99.90;;;;;;5071040;28;20031;-82
2023/05/17 05:01:38;;;;;;;11.68;6.80;;;7.50;99.90;;;;;;5057347;28;20032;-83
2023/05/17 05:04:05;;;;;;;12.95;6.60;;;7.50;99.90;;;;;;5049311;28;20060;-82
2023/05/17 05:06:32;;;;;;;12.60;7.13;;;7.50;99.90;;;;;;5066584;28;20123;-82
2023/05/17 05:08:59;;;;;;;11.82;6.55;;;7.60;99.90;;;;;;5058185;28;20518;-83
2023/05/17 05:11:25;;;;;;;14.15;6.45;;;7.70;99.90;;;;;;5060839;28;20032;-82
2023/05/17 05:13:50;;;;;;;12.52;6.97;;;7.70;99.90;;;;;;5048923;28;20436;-82
2023/05/17 05:16:16;;;;;;;15.30;6.85;;;7.70;99.90;;;;;;5056564;28;20193;-82
2023/05/17 05:18:42;;;;;;;10.00;5.88;;;7.80;99.90;;;;;;5055621;28;20031;-82
2023/05/17 05:21:07;;;;;;;12.75;6.95;;;7.90;99.90;;;;;;5075719;28;20035;-83
2023/05/17 05:23:33;;;;;;;10.55;6.05;;;8.00;99.90;;;;;;5085290;28;20035;-83
2023/05/17 05:25:59;;;;;;;18.25;7.20;;;8.10;99.90;;;;;;5047475;28;20482;-82
2023/05/17 05:28:25;;;;;;;10.13;6.22;;;8.10;99.90;;;;;;5091442;28;20043;-82
2023/05/17 05:30:59;;;;;;;13.43;6.45;;;8.20;99.90;;;;;;5061401;28;20032;-82
2023/05/17 05:33:24;;;;;;;12.82;6.07;;;8.30;99.90;;;;;;5065888;28;20048;-82
2023/05/17 05:35:50;;;;;;;15.57;6.32;;;8.40;99.90;;;;;;5073625;28;20028;-83
2023/05/17 05:38:16;;;;;;;13.48;6.45;;;8.50;99.90;;;;;;5062420;28;20434;-82
2023/05/17 05:40:41;;;;;;;11.20;5.97;;;8.60;99.90;;;;;;5088862;28;20085;-82
2023/05/17 05:43:07;;;;;;;14.10;6.32;;;8.70;99.90;;;;;;5076983;28;20028;-82
2023/05/17 05:45:32;;;;;;;15.88;5.60;;;8.70;99.90;;;;;;5080394;28;20024;-83
2023/05/17 05:47:58;;;;;;;15.10;6.32;;;8.80;99.90;;;;;;5084326;28;20039;-83
2023/05/17 05:50:24;;;;;;;15.85;6.22;;;9.00;99.90;;;;;;5047035;28;20658;-83
2023/05/17 05:52:49;;;;;;;12.60;6.32;;;9.10;99.90;;;;;;5065852;28;20036;-83
2023/05/17 05:55:15;;;;;;;12.35;6.25;;;9.20;99.90;;;;;;5076029;28;21649;-83
2023/05/17 05:57:40;;;;;;;12.77;6.30;;;9.20;99.90;;;;;;5065231;28;20063;-82
2023/05/17 06:00:07;;;;;;;13.18;5.80;;;9.40;99.90;;;;;;5080488;28;20024;-82
2023/05/17 06:02:34;;;;;;;12.30;6.00;;;9.40;99.90;;;;;;5065398;28;20478;-83
2023/05/17 06:04:59;;;;;;;14.57;5.65;;;9.50;99.90;;;;;;5068270;28;20100;-84
2023/05/17 06:07:25;;;;;;;696.70;403.17;;;9.60;99.90;;;;;;5080645;28;20039;-84
2023/05/17 06:09:50;;;;;;;95.13;41.50;;;9.80;99.90;;;;;;5081551;28;20791;-83
2023/05/17 06:12:16;;;;;;;18.80;9.00;;;9.80;99.90;;;;;;5084449;28;20024;-84
2023/05/17 06:14:42;;;;;;;14.85;6.53;;;9.90;99.90;;;;;;5066286;28;20031;-84
2023/05/17 06:17:07;;;;;;;17.33;6.00;;;10.00;99.90;;;;;;5071749;28;20032;-85
2023/05/17 06:19:33;;;;;;;11.93;5.05;;;10.20;99.90;;;;;;5054078;28;20135;-84
2023/05/17 06:21:59;;;;;;;13.48;5.80;;;10.30;99.90;;;;;;5064387;28;20537;-84
2023/05/17 06:24:24;;;;;;;9.23;5.47;;;10.50;99.90;;;;;;5074072;28;20035;-84
2023/05/17 06:26:50;;;;;;;50.63;25.30;;;10.60;99.90;;;;;;5052563;28;20032;-84
2023/05/17 06:29:15;;;;;;;16.02;6.28;;;10.70;99.90;;;;;;5059285;28;20051;-84
2023/05/17 06:31:41;;;;;;;14.45;5.25;;;10.90;99.90;;;;;;5052179;28;20492;-84
2023/05/17 06:34:06;;;;;;;11.57;5.50;;;11.00;99.90;;;;;;5052478;28;20580;-84
2023/05/17 06:36:33;;;;;;;15.45;5.00;;;11.10;99.90;;;;;;5086640;28;20558;-84
2023/05/17 06:38:59;;;;;;;15.60;5.00;;;11.20;99.90;;;;;;5057645;28;20032;-84
2023/05/17 06:41:25;;;;;;;167.70;85.90;;;11.40;99.90;;;;;;5080571;28;20384;-84
2023/05/17 06:43:50;;;;;;;52.78;24.67;;;11.50;99.90;;;;;;5071516;28;20028;-85
2023/05/17 06:46:16;;;;;;;12.98;6.35;;;11.70;99.90;;;;;;5086207;28;20027;-84
2023/05/17 06:48:42;;;;;;;12.55;5.70;;;11.80;99.90;;;;;;5094535;28;20036;-86
2023/05/17 06:51:07;;;;;;;14.23;5.70;;;11.90;99.90;;;;;;5073628;28;20035;-85
2023/05/17 06:53:33;;;;;;;12.88;5.35;;;12.00;99.90;;;;;;5078111;28;20114;-85
2023/05/17 06:55:59;;;;;;;22.90;6.32;;;12.20;99.90;;;;;;5073280;28;20027;-84
2023/05/17 06:58:25;;;;;;;17.65;5.15;;;12.30;99.90;;;;;;5084925;28;20032;-83
2023/05/17 07:00:50;;;;;;;13.45;4.85;;;12.40;99.90;;;;;;5057021;28;20619;-84
2023/05/17 07:03:16;;;;;;;16.45;4.93;;;12.40;99.90;;;;;;5080131;28;20115;-84
2023/05/17 07:05:42;;;;;;;13.35;4.75;;;12.60;99.90;;;;;;5078728;28;20451;-83
2023/05/17 07:08:07;;;;;;;13.45;4.90;;;12.70;99.90;;;;;;5082359;28;20041;-84
2023/05/17 07:10:33;;;;;;;9.73;4.78;;;12.90;99.90;;;;;;5075806;28;20031;-84
2023/05/17 07:12:59;;;;;;;12.45;4.88;;;12.90;99.90;;;;;;5081835;28;20020;-83
2023/05/17 07:15:24;;;;;;;17.20;5.28;;;13.10;99.90;;;;;;5059852;28;20039;-84
2023/05/17 07:17:50;;;;;;;14.50;5.10;;;13.30;99.90;;;;;;5075263;28;20114;-83
2023/05/17 07:20:15;;;;;;;9.50;4.43;;;13.40;99.90;;;;;;5055375;28;20091;-82
2023/05/17 07:22:41;;;;;;;14.57;4.78;;;13.70;99.90;;;;;;5060382;28;20021;-83
2023/05/17 07:25:07;;;;;;;15.75;5.68;;;13.90;99.90;;;;;;5075210;28;20032;-83
2023/05/17 07:27:33;;;;;;;16.15;4.60;;;14.20;99.90;;;;;;5068641;28;20047;-83
2023/05/17 07:30:00;;;;;;;12.15;4.50;;;14.30;99.90;;;;;;5067090;28;20024;-83
2023/05/17 07:32:25;;;;;;;12.98;4.47;;;14.50;99.90;;;;;;5078219;28;20048;-83
2023/05/17 07:34:51;;;;;;;18.05;4.38;;;14.70;99.90;;;;;;5086401;28;20040;-83
2023/05/17 07:37:16;;;;;;;10.40;4.78;;;14.90;99.90;;;;;;5078981;28;20021;-84
2023/05/17 07:39:42;;;;;;;10.95;4.53;;;15.10;99.90;;;;;;5060231;28;20035;-84
2023/05/17 07:42:07;;;;;;;11.68;4.07;;;15.70;99.90;;;;;;5083065;28;20024;-84
2023/05/17 07:44:33;;;;;;;8.57;3.88;;;16.80;98.40;;;;;;5079715;28;20040;-82
2023/05/17 07:46:58;;;;;;;12.65;3.95;;;18.60;95.10;;;;;;5056972;28;20033;-84
2023/05/17 07:49:26;;;;;;;10.85;4.18;;;21.40;67.90;;;;;;5080036;28;20114;-83
2023/05/17 07:51:52;;;;;;;8.82;3.45;;;24.00;49.50;;;;;;5080332;28;20032;-82
2023/05/17 07:54:26;;;;;;;12.90;4.35;;;26.50;42.90;;;;;;5072375;28;20028;-82
2023/05/17 07:56:53;;;;;;;11.27;3.65;;;28.40;38.30;;;;;;5069641;28;20028;-82
2023/05/17 07:59:22;;;;;;;6.25;3.30;;;30.00;35.60;;;;;;5052561;28;20093;-82
2023/05/17 08:01:48;;;;;;;10.40;4.13;;;31.30;35.20;;;;;;5066649;28;20036;-84
2023/05/17 08:04:14;;;;;;;8.85;3.47;;;31.60;31.60;;;;;;5072046;28;20029;-81
2023/05/17 08:06:40;;;;;;;8.57;3.70;;;32.80;30.60;;;;;;5067677;28;20047;-80
2023/05/17 08:09:06;;;;;;;10.27;3.55;;;33.80;29.30;;;;;;5073455;28;20064;-79
2023/05/17 08:11:33;;;;;;;8.23;3.38;;;33.90;30.30;;;;;;5081409;28;20071;-79
2023/05/17 08:14:02;;;;;;;7.75;3.10;;;34.00;28.80;;;;;;5064987;28;20031;-81
2023/05/17 08:16:27;;;;;;;6.97;3.30;;;34.40;29.00;;;;;;5071767;28;20048;-80
2023/05/17 08:18:53;;;;;;;9.80;3.28;;;34.40;28.80;;;;;;5081860;28;20800;-80
2023/05/17 08:21:19;;;;;;;6.80;3.30;;;34.70;28.70;;;;;;5079450;28;20120;-80
2023/05/17 08:23:45;;;;;;;9.90;2.92;;;35.10;28.30;;;;;;5072835;28;20035;-79
2023/05/17 08:26:11;;;;;;;10.80;3.15;;;35.50;28.30;;;;;;5079541;28;20432;-80
2023/05/17 08:28:37;;;;;;;8.90;3.10;;;36.30;27.20;;;;;;5082446;28;20071;-80
2023/05/17 08:31:06;;;;;;;6.32;3.38;;;36.10;28.10;;;;;;5078657;28;20032;-81
2023/05/17 08:33:31;;;;;;;6.15;2.80;;;36.20;28.00;;;;;;5071239;28;20041;-80
2023/05/17 08:36:00;;;;;;;9.07;3.55;;;36.40;26.90;;;;;;5070863;28;20035;-80
2023/05/17 08:38:25;;;;;;;5.78;2.90;;;36.70;26.80;;;;;;5055084;28;20036;-81
2023/05/17 08:40:55;;;;;;;7.82;3.47;;;37.00;27.10;;;;;;5065542;28;20036;-80
2023/05/17 08:43:23;;;;;;;7.70;3.30;;;37.20;25.60;;;;;;4722404;28;10000079;-80
2023/05/17 08:45:50;;;;;;;8.05;3.40;;;37.10;26.10;;;;;;5067410;28;20032;-80
2023/05/17 08:48:21;;;;;;;6.25;2.97;;;36.70;27.00;;;;;;5073773;28;20400;-80
2023/05/17 08:50:49;;;;;;;6.50;3.53;;;36.80;26.70;;;;;;5072474;28;20040;-80
2023/05/17 08:53:16;;;;;;;7.68;3.17;;;36.20;26.70;;;;;;5084886;28;20158;-80
2023/05/17 08:55:47;;;;;;;7.03;3.38;;;35.70;27.20;;;;;;5079743;28;20024;-80
2023/05/17 08:58:15;;;;;;;7.88;3.08;;;35.70;28.10;;;;;;5070239;28;20036;-80
2023/05/17 09:00:41;;;;;;;9.43;3.40;;;35.40;27.00;;;;;;5081123;28;20035;-80
2023/05/17 09:03:07;;;;;;;6.22;2.80;;;35.10;26.00;;;;;;5104814;28;20051;-81
2023/05/17 09:05:34;;;;;;;9.82;3.42;;;35.30;27.20;;;;;;5094182;28;20035;-81
2023/05/17 09:08:00;;;;;;;6.28;3.03;;;34.80;27.60;;;;;;5065107;28;20474;-80
2023/05/17 09:10:26;;;;;;;11.02;3.55;;;35.80;30.00;;;;;;5039305;28;20435;-81
2023/05/17 09:12:52;;;;;;;7.60;3.42;;;36.40;28.70;;;;;;5066602;28;20021;-81
2023/05/17 09:15:21;;;;;;;6.57;3.50;;;37.00;27.50;;;;;;4721043;27;10000421;-81
2023/05/17 09:17:54;;;;;;;8.27;3.28;;;37.00;26.20;;;;;;5042218;28;20104;-79
2023/05/17 09:20:24;;;;;;;7.93;3.15;;;37.40;27.10;;;;;;5043498;28;20119;-80
2023/05/17 09:23:13;;;;;;;8.32;3.33;;;37.70;27.70;;;;;;5069227;28;20048;-78
2023/05/17 09:25:47;;;;;;;6.63;3.47;;;38.20;26.30;;;;;;5075345;28;20047;-78
2023/05/17 09:28:12;;;;;;;5.93;2.88;;;37.60;23.80;;;;;;5056661;28;20402;-79
2023/05/17 09:30:38;;;;;;;11.05;3.33;;;37.60;24.80;;;;;;5081603;28;20044;-78
2023/05/17 09:33:10;;;;;;;8.65;3.22;;;37.90;25.80;;;;;;5071532;28;20088;-80
2023/05/17 09:35:45;;;;;;;8.05;3.92;;;37.90;25.70;;;;;;5055630;28;20039;-79
2023/05/17 09:38:13;;;;;;;7.85;3.38;;;37.80;24.30;;;;;;5063383;28;20024;-79
2023/05/17 09:40:44;;;;;;;8.75;3.55;;;38.10;26.40;;;;;;5050653;28;20027;-79
2023/05/17 09:43:10;;;;;;;8.48;2.67;;;38.30;26.00;;;;;;5053922;28;20064;-79
2023/05/17 09:45:37;;;;;;;6.38;2.97;;;39.00;23.90;;;;;;5051910;28;20110;-80
2023/05/17 09:48:16;;;;;;;10.10;3.15;;;38.90;23.70;;;;;;5047795;28;20037;-79
2023/05/17 09:50:51;;;;;;;6.75;2.97;;;38.90;24.90;;;;;;5067534;28;20508;-80
2023/05/17 09:53:26;;;;;;;7.78;3.00;;;39.10;25.10;;;;;;5076664;28;20032;-80
2023/05/17 09:55:56;;;;;;;9.10;2.65;;;39.30;25.00;;;;;;5067249;28;20036;-79
2023/05/17 09:58:22;;;;;;;5.60;3.00;;;39.40;24.80;;;;;;5049773;28;20032;-79
2023/05/17 10:00:53;;;;;;;6.88;2.88;;;39.50;24.50;;;;;;5075493;28;20047;-79
2023/05/17 10:03:19;;;;;;;6.32;2.90;;;39.60;25.20;;;;;;5075912;28;20036;-81
2023/05/17 10:06:06;;;;;;;11.00;3.33;;;40.20;25.30;;;;;;5073656;28;20112;-80
2023/05/17 10:08:32;;;;;;;6.50;3.00;;;39.90;23.40;;;;;;5021514;28;20419;-81
2023/05/17 10:11:11;;;;;;;7.03;3.20;;;39.60;24.30;;;;;;5081431;28;20028;-80
2023/05/17 10:14:00;;;;;;;10.25;3.13;;;39.40;23.00;;;;;;5066098;28;20088;-80
2023/05/17 10:16:27;;;;;;;8.30;3.08;;;39.80;23.10;;;;;;5078822;28;20050;-82
2023/05/17 10:18:56;;;;;;;7.80;3.33;;;39.20;24.30;;;;;;5079639;28;20379;-79
2023/05/17 10:21:22;;;;;;;8.45;3.30;;;38.70;24.70;;;;;;5053172;28;20111;-81
2023/05/17 10:23:48;;;;;;;9.15;3.35;;;38.60;25.10;;;;;;5052839;28;20181;-82
2023/05/17 10:26:15;;;;;;;6.90;3.28;;;38.50;23.40;;;;;;5078948;28;20051;-82
2023/05/17 10:28:42;;;;;;;5.88;3.15;;;39.00;23.60;;;;;;5098627;28;20032;-83
2023/05/17 10:31:07;;;;;;;8.50;3.15;;;39.40;24.80;;;;;;5086559;28;20049;-81
2023/05/17 10:33:44;;;;;;;9.73;3.30;;;38.40;24.10;;;;;;5077145;28;20108;-81
2023/05/17 10:36:11;;;;;;;7.70;3.25;;;37.10;24.80;;;;;;5076778;28;20057;-80
2023/05/17 10:38:37;;;;;;;6.70;2.88;;;36.00;26.20;;;;;;5073100;28;20036;-82
2023/05/17 10:41:03;;;;;;;7.07;2.92;;;35.40;26.60;;;;;;5058454;28;20041;-82
2023/05/17 10:43:31;;;;;;;7.47;3.10;;;35.80;25.80;;;;;;5070381;28;20035;-83
2023/05/17 10:45:58;;;;;;;6.07;3.08;;;36.10;25.40;;;;;;5059258;28;20748;-83
2023/05/17 10:48:29;;;;;;;7.22;2.95;;;37.30;23.90;;;;;;5051475;28;20036;-82
2023/05/17 10:51:08;;;;;;;7.90;3.53;;;37.70;24.40;;;;;;5068412;28;20055;-81
2023/05/17 10:54:10;;;;;;;8.13;3.08;;;37.20;22.80;;;;;;5052202;28;20032;-82
2023/05/17 10:56:46;;;;;;;7.65;3.15;;;37.30;27.20;;;;;;5054958;28;20032;-82
2023/05/17 10:59:26;;;;;;;6.85;3.13;;;36.60;23.80;;;;;;5074140;28;20028;-81
2023/05/17 11:01:53;;;;;;;;;;;35.70;25.10;;;;;;5081816;28;20098;-82
2023/05/17 11:04:22;;;;;;;8.43;3.08;;;34.60;24.40;;;;;;5060593;28;19935;-81
2023/05/17 11:06:50;;;;;;;6.18;2.70;;;35.20;26.20;;;;;;5059520;28;20028;-82
2023/05/17 11:09:17;;;;;;;6.47;2.83;;;36.00;25.20;;;;;;5078448;28;20044;-83
2023/05/17 11:12:07;;;;;;;11.40;3.45;;;37.20;27.70;;;;;;5066701;23;20404;-83
2023/05/17 11:14:46;;;;;;;8.10;3.17;;;38.40;22.60;;;;;;5060903;28;20166;-82
2023/05/17 11:17:18;;;;;;;6.25;3.17;;;37.00;23.40;;;;;;5053448;28;20044;-83
2023/05/17 11:19:53;;;;;;;9.32;3.03;;;34.90;25.10;;;;;;5045519;28;20043;-82
2023/05/17 11:22:51;;;;;;;9.02;3.42;;;32.50;27.90;;;;;;5049532;28;20128;-82
2023/05/17 11:25:18;;;;;;;11.57;3.35;;;30.20;27.40;;;;;;5057858;28;20048;-83
2023/05/17 11:27:49;;;;;;;7.53;3.28;;;28.50;29.80;;;;;;5046230;28;20165;-83
2023/05/17 11:30:18;;;;;;;;;;;27.40;34.00;;;;;;5039476;28;20033;-81
2023/05/17 11:32:49;;;;;;;6.32;3.30;;;26.50;36.50;;;;;;5064042;28;19916;-82
2023/05/17 11:35:17;;;;;;;7.50;3.40;;;25.60;37.50;;;;;;5049044;28;20039;-83
2023/05/17 11:37:43;;;;;;;6.82;3.20;;;25.40;36.30;;;;;;5056018;28;20035;-83
2023/05/17 11:40:11;;;;;;;6.18;3.13;;;25.80;35.90;;;;;;5052932;28;20120;-84
2023/05/17 11:42:38;;;;;;;8.40;2.80;;;26.40;33.40;;;;;;5039590;28;20471;-83
2023/05/17 11:45:04;;;;;;;8.98;3.13;;;26.50;32.90;;;;;;5065838;28;20097;-82
2023/05/17 11:47:31;;;;;;;6.88;3.03;;;25.80;33.10;;;;;;5064975;28;20519;-83
2023/05/17 11:50:01;;;;;;;6.20;2.93;;;25.60;33.30;;;;;;4727785;28;10000111;-83
2023/05/17 11:52:28;;;;;;;8.20;2.87;;;25.40;35.50;;;;;;5062217;28;20021;-82
2023/05/17 11:54:55;;;;;;;7.15;2.92;;;25.20;37.10;;;;;;5063557;28;20301;-82
2023/05/17 11:57:27;;;;;;;6.13;2.70;;;24.90;39.10;;;;;;5058956;28;20111;-80
2023/05/17 12:00:04;;;;;;;9.05;3.17;;;24.40;40.60;;;;;;5058860;28;20268;-83
2023/05/17 12:02:37;;;;;;;8.48;3.03;;;23.90;36.20;;;;;;5057982;28;20045;-82
2023/05/17 12:05:03;;;;;;;7.47;2.78;;;23.50;37.90;;;;;;5040055;28;20028;-83
2023/05/17 12:07:29;;;;;;;5.50;2.55;;;23.30;41.00;;;;;;5035116;28;20513;-83
2023/05/17 12:09:54;;;;;;;8.48;2.90;;;23.10;41.60;;;;;;5051458;28;20127;-83
2023/05/17 12:12:21;;;;;;;8.60;2.90;;;23.00;42.40;;;;;;5046867;28;20081;-82
2023/05/17 12:14:47;;;;;;;6.38;2.88;;;22.80;41.90;;;;;;5051029;28;20077;-81
2023/05/17 12:17:22;;;;;;;5.53;2.83;;;22.90;40.30;;;;;;5034135;28;20111;-80
2023/05/17 12:19:51;;;;;;;4.43;2.70;;;23.90;39.40;;;;;;5047844;28;20025;-82
2023/05/17 12:22:17;;;;;;;5.53;2.78;;;25.20;41.90;;;;;;5051408;28;20031;-80
2023/05/17 12:25:28;;;;;;;6.88;2.83;;;26.20;35.20;;;;;;5049301;22;20050;-81
2023/05/17 12:28:15;;;;;;;6.85;2.67;;;26.70;35.20;;;;;;5022794;28;20496;-81
2023/05/17 12:30:56;;;;;;;8.60;3.03;;;26.50;34.50;;;;;;5013523;28;20173;-80
2023/05/17 12:33:25;;;;;;;3.22;2.40;;;25.90;33.80;;;;;;5038902;28;20118;-81
2023/05/17 12:36:20;;;;;;;5.82;2.63;;;25.80;36.90;;;;;;5023933;28;20283;-82
2023/05/17 12:38:46;;;;;;;8.85;5.28;;;25.30;34.50;;;;;;5056327;28;20073;-83
2023/05/17 12:41:24;;;;;;;8.30;3.20;;;24.90;35.80;;;;;;5009365;28;20032;-81
2023/05/17 12:43:51;;;;;;;7.05;3.17;;;24.30;38.40;;;;;;5023102;28;20461;-81
2023/05/17 12:46:27;;;;;;;8.38;3.08;;;23.80;38.70;;;;;;5021038;28;20057;-82
2023/05/17 12:49:14;;;;;;;10.75;3.03;;;23.50;39.60;;;;;;5012096;23;20475;-81
2023/05/17 12:51:44;;;;;;;6.72;3.60;;;23.50;43.90;;;;;;5000636;28;20337;-82